Time;durP1;ratioP1;P1;durP2;ratioP2;P2;SDS_P1;SDS_P2;PMS_P1;PMS_P2;Temp;Humidity;BMP_temperature;BMP_pressure;BME280_temperature;BME280_humidity;BME280_pressure;Samples;Min_cycle;Max_cycle;Signal;HPM_P1;HPM_P2
2022/03/27 00:00:01;;;;;;;;;;;;;;;17.95;49.77;100359.91;2104904;28;19982;-64
2022/03/27 00:01:01;;;;;;;;;;;;;;;17.95;49.51;100365.38;2104615;28;19920;-64
2022/03/27 00:02:01;;;;;;;;;;;;;;;17.94;49.84;100359.06;2098856;28;20485;-64
2022/03/27 00:03:02;;;;;;;;;;;;;;;17.96;49.80;100365.25;2101457;28;19965;-64
2022/03/27 00:04:02;;;;;;;;;;;;;;;17.96;49.83;100359.78;2104426;28;19923;-64
2022/03/27 00:05:02;;;;;;;;;;;;;;;17.96;49.88;100364.38;2105916;28;20331;-63
2022/03/27 00:06:03;;;;;;;;;;;;;;;17.94;49.88;100361.78;2105215;28;19912;-63
2022/03/27 00:07:03;;;;;;;;;;;;;;;17.94;50.11;100359.06;2100963;28;20015;-64
2022/03/27 00:08:04;;;;;;;;;;;;;;;17.94;50.01;100359.06;2104243;28;19916;-64
2022/03/27 00:09:04;;;;;;;;;;;;;;;17.95;49.87;100358.03;2102807;28;20399;-64
2022/03/27 00:10:05;;;;;;;;;;;;;;;17.96;49.89;100358.94;2098397;28;20015;-64
2022/03/27 00:12:24;;;;;;;;;;;;;;;17.97;49.82;100360.63;2102378;28;19912;-64
2022/03/27 00:13:24;;;;;;;;;;;;;;;17.95;50.02;100358.03;2102548;28;20398;-64
2022/03/27 00:14:25;;;;;;;;;;;;;;;17.96;49.79;100358.94;2098409;28;19916;-64
2022/03/27 00:15:26;;;;;;;;;;;;;;;17.95;49.75;100352.59;2093540;28;19928;-64
2022/03/27 00:16:26;;;;;;;;;;;;;;;17.96;49.88;100357.06;2094457;28;21094;-64
2022/03/27 00:17:29;;;;;;;;;;;;;;;17.96;49.78;100351.59;2102347;28;19923;-64
2022/03/27 00:18:29;;;;;;;;;;;;;;;17.97;49.95;100356.03;2086136;28;19925;-65
2022/03/27 00:19:29;;;;;;;;;;;;;;;17.96;49.75;100353.47;2098335;28;19919;-65
2022/03/27 00:20:30;;;;;;;;;;;;;;;17.97;49.77;100360.63;2097367;28;19923;-65
2022/03/27 00:21:30;;;;;;;;;;;;;;;17.97;49.90;100363.38;2104415;28;19912;-64
2022/03/27 00:22:30;;;;;;;;;;;;;;;17.96;49.78;100357.06;2100770;28;19924;-63
2022/03/27 00:23:31;;;;;;;;;;;;;;;17.95;49.93;100347.13;2096120;28;19962;-63
2022/03/27 00:24:32;;;;;;;;;;;;;;;17.94;50.06;100353.59;2102475;28;20349;-64
2022/03/27 00:25:32;;;;;;;;;;;;;;;17.96;49.88;100358.94;2097239;28;19951;-64
2022/03/27 00:26:33;;;;;;;;;;;;;;;17.95;49.96;100362.63;2102943;28;19912;-64
2022/03/27 00:27:34;;;;;;;;;;;;;;;17.93;50.18;100360.06;2102443;28;19919;-63
2022/03/27 00:28:34;;;;;;;;;;;;;;;17.94;49.96;100361.78;2102347;28;20406;-64
2022/03/27 00:29:34;;;;;;;;;;;;;;;17.93;50.23;100360.06;2102346;28;19977;-64
2022/03/27 00:30:35;;;;;;;;;;;;;;;17.95;50.10;100363.50;2102261;28;19916;-63
2022/03/27 00:31:36;;;;;;;;;;;;;;;17.93;50.17;100360.06;2104637;28;20395;-64
2022/03/27 00:32:36;;;;;;;;;;;;;;;17.96;49.97;100365.25;2101484;28;19916;-64
2022/03/27 00:33:38;;;;;;;;;;;;;;;17.96;50.19;100356.19;2093871;28;20466;-63
2022/03/27 00:34:38;;;;;;;;;;;;;;;17.93;50.13;100360.06;2092286;28;19950;-64
2022/03/27 00:35:38;;;;;;;;;;;;;;;17.96;50.08;100361.66;2092667;28;19917;-64
2022/03/27 00:36:39;;;;;;;;;;;;;;;17.96;50.18;100358.94;2101251;28;20003;-64
2022/03/27 00:37:39;;;;;;;;;;;;;;;17.95;49.99;100363.50;2099912;28;19912;-64
2022/03/27 00:38:40;;;;;;;;;;;;;;;17.96;50.27;100362.50;2101875;28;19916;-64
2022/03/27 00:39:40;;;;;;;;;;;;;;;17.95;50.08;100357.19;2106389;28;19918;-64
2022/03/27 00:40:41;;;;;;;;;;;;;;;17.95;50.17;100352.59;2100333;28;20290;-64
2022/03/27 00:41:43;;;;;;;;;;;;;;;17.96;50.14;100356.19;2100175;28;19908;-64
2022/03/27 00:42:43;;;;;;;;;;;;;;;17.95;50.16;100355.31;2096215;28;20480;-65
2022/03/27 00:43:43;;;;;;;;;;;;;;;17.95;50.01;100352.59;2098726;28;20298;-64
2022/03/27 00:44:45;;;;;;;;;;;;;;;17.94;50.23;100350.88;2101882;28;19934;-64
2022/03/27 00:45:46;;;;;;;;;;;;;;;17.94;50.20;100359.06;2092437;28;19952;-64
2022/03/27 00:46:47;;;;;;;;;;;;;;;17.93;50.31;100360.06;2094434;28;20312;-64
2022/03/27 00:47:47;;;;;;;;;;;;;;;17.93;50.13;100353.72;2099713;28;20440;-64
2022/03/27 00:48:47;;;;;;;;;;;;;;;17.92;50.23;100355.59;2099347;28;19927;-64
2022/03/27 00:49:47;;;;;;;;;;;;;;;17.91;50.23;100353.88;2093475;28;19917;-64
2022/03/27 00:50:49;;;;;;;;;;;;;;;17.92;50.36;100357.47;2093367;28;19999;-64
2022/03/27 00:51:49;;;;;;;;;;;;;;;17.91;50.38;100362.06;2102595;28;19993;-64
2022/03/27 00:52:49;;;;;;;;;;;;;;;17.90;50.15;100354.84;2101985;28;19920;-64
2022/03/27 00:53:50;;;;;;;;;;;;;;;17.91;50.51;100359.34;2100604;28;19916;-64
2022/03/27 00:54:50;;;;;;;;;;;;;;;17.92;50.42;100354.72;2104962;28;19916;-63
2022/03/27 00:55:51;;;;;;;;;;;;;;;17.91;50.17;100351.16;2103592;28;19912;-63
2022/03/27 00:56:51;;;;;;;;;;;;;;;17.91;50.38;100361.19;2106396;28;19961;-63
2022/03/27 00:57:52;;;;;;;;;;;;;;;17.92;50.56;100357.47;2102513;28;20378;-63
2022/03/27 00:58:52;;;;;;;;;;;;;;;17.91;50.28;100356.59;2103459;28;19916;-63
2022/03/27 00:59:53;;;;;;;;;;;;;;;17.90;50.46;100354.84;2096002;28;19919;-63
2022/03/27 01:01:03;;;;;;;;;;;;;;;17.90;50.32;100354.84;2093784;28;20397;-64
2022/03/27 01:02:03;;;;;;;;;;;;;;;17.91;50.29;100356.59;2103993;28;20344;-62
2022/03/27 01:03:25;;;;;;;;;;;;;;;17.89;50.27;100363.19;2092025;28;20102;-63
2022/03/27 01:04:25;;;;;;;;;;;;;;;17.89;50.48;100360.47;2092040;28;20424;-63
2022/03/27 01:05:25;;;;;;;;;;;;;;;17.86;49.95;100360.72;2089097;28;19926;-63
2022/03/27 01:06:28;;;;;;;;;;;;;;;17.84;49.90;100360.88;2088655;28;20007;-63
2022/03/27 01:07:31;;;;;;;;;;;;;;;17.83;49.94;100364.59;2090035;28;20313;-64
2022/03/27 01:09:50;;;;;;;;;;;;;;;17.79;50.05;100365.84;2084657;28;20048;-63
2022/03/27 01:10:51;;;;;;;;;;;;;;;17.78;50.06;100361.38;2090623;28;19920;-63
2022/03/27 01:11:52;;;;;;;;;;;;;;;17.76;49.87;100363.34;2089517;28;19932;-63
2022/03/27 01:12:52;;;;;;;;;;;;;;;17.75;50.05;100361.63;2091065;28;20341;-63
2022/03/27 01:13:53;;;;;;;;;;;;;;;17.75;50.13;100361.63;2089515;28;19920;-63
2022/03/27 01:14:54;;;;;;;;;;;;;;;17.74;49.90;100365.38;2088761;28;19920;-64
2022/03/27 01:15:56;;;;;;;;;;;;;;;17.73;49.86;100363.63;2091622;28;19951;-63
2022/03/27 01:17:01;;;;;;;;;;;;;;;17.71;50.08;100361.06;2088672;28;19934;-64
2022/03/27 01:18:03;;;;;;;;;;;;;;;17.71;49.99;100371.06;2086732;28;20294;-63
2022/03/27 01:19:04;;;;;;;;;;;;;;;17.69;50.13;100367.66;2093814;28;20138;-63
2022/03/27 01:20:04;;;;;;;;;;;;;;;17.69;50.07;100373.09;2089891;28;19920;-62
2022/03/27 01:21:07;;;;;;;;;;;;;;;17.69;49.84;100367.66;2089525;28;20210;-62
2022/03/27 01:22:07;;;;;;;;;;;;;;;17.68;50.04;100376.81;2086428;28;19993;-62
2022/03/27 01:23:09;;;;;;;;;;;;;;;17.68;49.84;100376.81;2081264;28;19939;-62
2022/03/27 01:24:10;;;;;;;;;;;;;;;17.67;50.06;100370.50;2081267;28;19924;-62
2022/03/27 01:25:10;;;;;;;;;;;;;;;17.67;50.00;100364.19;2089865;28;19920;-63
2022/03/27 01:26:10;;;;;;;;;;;;;;;17.67;49.83;100366.91;2080145;28;20463;-63
2022/03/27 01:27:11;;;;;;;;;;;;;;;17.66;49.76;100370.63;2080620;28;19998;-64
2022/03/27 01:28:12;;;;;;;;;;;;;;;17.67;49.99;100380.53;2090649;28;19919;-63
2022/03/27 01:29:12;;;;;;;;;;;;;;;17.67;49.79;100380.53;2089149;28;19912;-63
2022/03/27 01:30:13;;;;;;;;;;;;;;;17.66;49.63;100384.25;2090966;28;19984;-63
2022/03/27 01:31:13;;;;;;;;;;;;;;;17.66;49.76;100378.78;2083813;28;20383;-62
2022/03/27 01:32:14;;;;;;;;;;;;;;;17.65;49.98;100385.25;2082559;28;19912;-62
2022/03/27 01:33:14;;;;;;;;;;;;;;;17.65;49.64;100377.94;2091787;28;20560;-63
2022/03/27 01:34:15;;;;;;;;;;;;;;;17.65;49.76;100383.38;2093123;28;20015;-63
2022/03/27 01:35:15;;;;;;;;;;;;;;;17.64;49.72;100380.78;2081285;28;19920;-63
2022/03/27 01:36:22;;;;;;;;;;;;;;;17.64;49.65;100391.69;2081819;28;19920;-64
2022/03/27 01:37:22;;;;;;;;;;;;;;;17.64;49.54;100394.41;2085280;28;19968;-62
2022/03/27 01:38:22;;;;;;;;;;;;;;;17.64;49.61;100386.25;2087908;28;19908;-63
2022/03/27 01:39:23;;;;;;;;;;;;;;;17.62;49.63;100391.84;2088518;28;19956;-64
2022/03/27 01:40:24;;;;;;;;;;;;;;;17.63;49.73;100384.53;2086191;28;19916;-62
2022/03/27 01:41:24;;;;;;;;;;;;;;;17.62;49.60;100388.25;2090054;28;19977;-63
2022/03/27 01:42:24;;;;;;;;;;;;;;;17.60;49.58;100380.22;2089006;28;20303;-64
2022/03/27 01:43:24;;;;;;;;;;;;;;;17.61;49.57;100391.97;2090257;28;19920;-63
2022/03/27 01:44:25;;;;;;;;;;;;;;;17.61;49.70;100391.97;2091713;28;19919;-63
2022/03/27 01:45:27;;;;;;;;;;;;;;;17.60;49.55;100390.25;2090697;28;20473;-64
2022/03/27 01:46:32;;;;;;;;;;;;;;;17.61;49.53;100391.97;2090825;28;19955;-63
2022/03/27 01:47:32;;;;;;;;;;;;;;;17.61;49.79;100394.69;2081978;28;19917;-62
2022/03/27 01:48:32;;;;;;;;;;;;;;;17.60;49.48;100393.84;2083394;28;20007;-62
2022/03/27 01:49:32;;;;;;;;;;;;;;;17.60;49.59;100385.66;2089702;28;19965;-64
2022/03/27 01:50:33;;;;;;;;;;;;;;;17.61;49.57;100391.97;2081122;28;19920;-63
2022/03/27 01:51:35;;;;;;;;;;;;;;;17.60;49.64;100382.94;2081505;28;19998;-64
2022/03/27 01:52:36;;;;;;;;;;;;;;;17.60;49.57;100393.84;2088106;28;20107;-64
2022/03/27 01:53:37;;;;;;;;;;;;;;;17.59;49.55;100392.13;2088606;28;20731;-64
2022/03/27 01:54:37;;;;;;;;;;;;;;;17.60;49.48;100390.25;2087117;28;20454;-63
2022/03/27 01:55:38;;;;;;;;;;;;;;;17.60;49.80;100395.69;2090745;28;19988;-64
2022/03/27 01:56:38;;;;;;;;;;;;;;;17.60;49.57;100401.16;2089766;28;20395;-64
2022/03/27 01:57:41;;;;;;;;;;;;;;;17.58;49.51;100393.09;2082620;28;19963;-62
2022/03/27 01:58:42;;;;;;;;;;;;;;;17.57;49.57;100392.25;2083585;28;19956;-63
2022/03/27 01:59:42;;;;;;;;;;;;;;;17.57;49.84;100394.97;2077814;28;19916;-62
2022/03/27 02:00:43;;;;;;;;;;;;;;;17.57;49.56;100396.84;2077965;28;19916;-63
2022/03/27 02:01:43;;;;;;;;;;;;;;;17.56;49.77;100389.63;2092984;28;19924;-63
2022/03/27 02:02:44;;;;;;;;;;;;;;;17.54;49.76;100392.50;2091100;28;20480;-63
2022/03/27 02:03:44;;;;;;;;;;;;;;;17.57;49.86;100391.38;2092015;28;19920;-62
2022/03/27 02:04:44;;;;;;;;;;;;;;;17.56;49.77;100395.97;2089633;28;19915;-64
2022/03/27 02:05:45;;;;;;;;;;;;;;;17.57;49.71;100391.38;2089091;28;19970;-63
2022/03/27 02:06:45;;;;;;;;;;;;;;;17.56;49.96;100390.53;2090448;28;19916;-62
2022/03/27 02:07:45;;;;;;;;;;;;;;;17.57;49.75;100396.84;2093129;28;19923;-63
2022/03/27 02:08:46;;;;;;;;;;;;;;;17.55;49.74;100387.91;2090614;28;19916;-62
2022/03/27 02:09:46;;;;;;;;;;;;;;;17.55;49.53;100383.31;2090126;28;20350;-63
2022/03/27 02:10:47;;;;;;;;;;;;;;;17.54;49.64;100387.06;2090250;28;19927;-62
2022/03/27 02:11:47;;;;;;;;;;;;;;;17.55;49.53;100386.06;2088670;28;19966;-63
2022/03/27 02:12:48;;;;;;;;;;;;;;;17.55;49.68;100386.06;2089492;28;19932;-63
2022/03/27 02:13:48;;;;;;;;;;;;;;;17.55;49.75;100383.31;2081070;28;19952;-64
2022/03/27 02:14:48;;;;;;;;;;;;;;;17.54;49.94;100384.34;2084098;28;19920;-64
2022/03/27 02:15:49;;;;;;;;;;;;;;;17.55;49.90;100388.78;2091565;28;20462;-63
2022/03/27 02:16:49;;;;;;;;;;;;;;;17.53;49.92;100382.59;2090570;28;19951;-63
2022/03/27 02:17:50;;;;;;;;;;;;;;;17.53;49.70;100379.88;2079957;28;19916;-63
2022/03/27 02:18:50;;;;;;;;;;;;;;;17.52;49.71;100380.00;2083947;28;19925;-62
2022/03/27 02:19:51;;;;;;;;;;;;;;;17.52;49.94;100380.00;2079759;28;19932;-64
2022/03/27 02:20:51;;;;;;;;;;;;;;;17.52;49.95;100389.06;2085344;28;20328;-62
2022/03/27 02:21:51;;;;;;;;;;;;;;;17.51;49.89;100387.31;2081823;28;20457;-63
2022/03/27 02:22:52;;;;;;;;;;;;;;;17.52;49.98;100382.75;2091762;28;19916;-63
2022/03/27 02:23:52;;;;;;;;;;;;;;;17.51;49.74;100381.84;2089700;28;19920;-62
2022/03/27 02:24:53;;;;;;;;;;;;;;;17.51;49.86;100387.31;2087124;28;19962;-63
2022/03/27 02:25:53;;;;;;;;;;;;;;;17.53;49.75;100384.47;2081661;28;20007;-63
2022/03/27 02:26:54;;;;;;;;;;;;;;;17.51;49.86;100381.84;2075718;28;19921;-63
2022/03/27 02:27:54;;;;;;;;;;;;;;;17.52;49.75;100380.00;2080260;28;20049;-63
2022/03/27 02:28:54;;;;;;;;;;;;;;;17.52;49.68;100389.06;2090035;28;19920;-63
2022/03/27 02:29:55;;;;;;;;;;;;;;;17.52;49.82;100386.31;2091534;28;19920;-63
2022/03/27 02:30:55;;;;;;;;;;;;;;;17.53;49.69;100385.31;2090813;28;20045;-64
2022/03/27 02:31:56;;;;;;;;;;;;;;;17.55;49.66;100388.78;2088826;28;19931;-64
2022/03/27 02:32:56;;;;;;;;;;;;;;;17.55;49.90;100388.78;2087944;28;20405;-62
2022/03/27 02:33:56;;;;;;;;;;;;;;;17.55;49.57;100385.19;2077732;28;19972;-63
2022/03/27 02:34:56;;;;;;;;;;;;;;;17.55;49.82;100388.78;2079098;28;19912;-63
2022/03/27 02:35:57;;;;;;;;;;;;;;;17.54;49.75;100386.16;2091860;28;19924;-63
2022/03/27 02:36:57;;;;;;;;;;;;;;;17.56;49.92;100387.78;2080886;28;20582;-63
2022/03/27 02:37:58;;;;;;;;;;;;;;;17.56;49.69;100385.06;2083253;28;19920;-63
2022/03/27 02:38:58;;;;;;;;;;;;;;;17.56;49.71;100390.53;2080711;28;19920;-63
2022/03/27 02:39:58;;;;;;;;;;;;;;;17.55;49.78;100383.31;2082850;28;19920;-64
2022/03/27 02:40:59;;;;;;;;;;;;;;;17.53;49.73;100384.47;2088639;28;19920;-62
2022/03/27 02:41:59;;;;;;;;;;;;;;;17.55;49.75;100387.91;2087242;28;19981;-63
2022/03/27 02:42:59;;;;;;;;;;;;;;;17.54;49.85;100389.78;2088872;28;19919;-63
2022/03/27 02:44:00;;;;;;;;;;;;;;;17.54;50.00;100392.50;2085970;28;19913;-63
2022/03/27 02:45:00;;;;;;;;;;;;;;;17.53;50.00;100390.75;2089185;28;19993;-62
2022/03/27 02:46:00;;;;;;;;;;;;;;;17.53;50.02;100396.22;2087972;28;19923;-62
2022/03/27 02:47:01;;;;;;;;;;;;;;;17.52;49.95;100383.59;2090940;28;19912;-62
2022/03/27 02:48:01;;;;;;;;;;;;;;;17.52;50.04;100394.50;2089765;28;19920;-63
2022/03/27 02:49:01;;;;;;;;;;;;;;;17.54;49.86;100392.50;2091857;28;20007;-63
2022/03/27 02:50:04;;;;;;;;;;;;;;;17.53;49.86;100396.22;2090771;28;20914;-62
2022/03/27 02:51:05;;;;;;;;;;;;;;;17.52;49.77;100394.50;2087474;28;19913;-63
2022/03/27 02:52:05;;;;;;;;;;;;;;;17.54;49.82;100394.34;2087096;28;19930;-65
2022/03/27 02:53:06;;;;;;;;;;;;;;;17.53;49.78;100395.34;2089470;28;20585;-64
2022/03/27 02:54:07;;;;;;;;;;;;;;;17.53;49.92;100390.75;2091146;28;19954;-62
2022/03/27 02:55:08;;;;;;;;;;;;;;;17.53;49.70;100396.22;2087736;28;19975;-63
2022/03/27 02:56:09;;;;;;;;;;;;;;;17.54;49.84;100392.50;2082184;28;20483;-63
2022/03/27 02:57:09;;;;;;;;;;;;;;;17.53;49.64;100396.22;2084696;28;20532;-64
2022/03/27 02:58:09;;;;;;;;;;;;;;;17.54;49.96;100392.50;2079356;28;19924;-62
2022/03/27 02:59:10;;;;;;;;;;;;;;;17.53;49.75;100396.22;2091594;28;20003;-63
2022/03/27 03:00:10;;;;;;;;;;;;;;;17.54;49.79;100387.06;2086987;28;19927;-63
2022/03/27 03:01:11;;;;;;;;;;;;;;;17.53;49.82;100390.75;2088172;28;19923;-65
2022/03/27 03:02:11;;;;;;;;;;;;;;;17.53;49.78;100396.22;2092198;28;20015;-63
2022/03/27 03:03:13;;;;;;;;;;;;;;;17.54;49.87;100388.91;2090638;28;20465;-63
2022/03/27 03:04:17;;;;;;;;;;;;;;;17.53;49.90;100385.31;2089257;28;19954;-63
2022/03/27 03:05:17;;;;;;;;;;;;;;;17.52;49.99;100383.59;2088468;28;20655;-63
2022/03/27 03:06:18;;;;;;;;;;;;;;;17.52;49.92;100388.19;2092554;28;20370;-63
2022/03/27 03:07:19;;;;;;;;;;;;;;;17.52;49.83;100389.06;2087940;28;20433;-62
2022/03/27 03:08:19;;;;;;;;;;;;;;;17.53;50.03;100393.50;2085821;28;20343;-63
2022/03/27 03:09:20;;;;;;;;;;;;;;;17.52;49.73;100386.31;2088797;28;19920;-64
2022/03/27 03:10:20;;;;;;;;;;;;;;;17.51;49.97;100381.84;2086891;28;19924;-62
2022/03/27 03:11:21;;;;;;;;;;;;;;;17.51;50.15;100386.44;2091294;28;20003;-63
2022/03/27 03:12:21;;;;;;;;;;;;;;;17.49;49.76;100386.59;2092051;28;19908;-63
2022/03/27 03:13:21;;;;;;;;;;;;;;;17.50;50.02;100387.47;2089931;28;20401;-64
2022/03/27 03:14:22;;;;;;;;;;;;;;;17.49;49.98;100383.88;2091823;28;20595;-64
2022/03/27 03:15:23;;;;;;;;;;;;;;;17.48;49.84;100382.13;2089255;28;19920;-63
2022/03/27 03:16:25;;;;;;;;;;;;;;;17.49;50.21;100381.16;2084856;28;20334;-62
2022/03/27 03:17:26;;;;;;;;;;;;;;;17.49;49.91;100389.31;2088056;28;19916;-63
2022/03/27 03:18:27;;;;;;;;;;;;;;;17.48;49.88;100384.84;2090062;28;19974;-63
2022/03/27 03:19:29;;;;;;;;;;;;;;;17.49;49.92;100378.41;2088893;28;20466;-63
2022/03/27 03:20:29;;;;;;;;;;;;;;;17.48;49.91;100387.56;2089090;28;19939;-64
2022/03/27 03:21:30;;;;;;;;;;;;;;;17.48;49.95;100387.56;2092126;28;19920;-63
2022/03/27 03:22:31;;;;;;;;;;;;;;;17.48;49.95;100387.56;2090731;28;20062;-63
2022/03/27 03:23:32;;;;;;;;;;;;;;;17.47;49.81;100380.41;2083631;28;19921;-64
2022/03/27 03:24:32;;;;;;;;;;;;;;;17.48;50.06;100382.13;2079711;28;19908;-64
2022/03/27 03:25:32;;;;;;;;;;;;;;;17.48;49.82;100381.25;2092512;28;20395;-62
2022/03/27 03:26:33;;;;;;;;;;;;;;;17.48;49.92;100387.56;2087148;28;20388;-62
2022/03/27 03:27:34;;;;;;;;;;;;;;;17.48;49.80;100384.00;2092124;28;19919;-63
2022/03/27 03:28:34;;;;;;;;;;;;;;;17.48;49.97;100393.03;2092257;28;19908;-63
2022/03/27 03:29:35;;;;;;;;;;;;;;;17.47;50.04;100391.31;2091504;28;19920;-63
2022/03/27 03:30:35;;;;;;;;;;;;;;;17.47;50.10;100391.31;2089897;28;20267;-64
2022/03/27 03:31:35;;;;;;;;;;;;;;;17.47;49.94;100391.31;2091537;28;19962;-63
2022/03/27 03:32:36;;;;;;;;;;;;;;;17.47;49.85;100385.88;2090666;28;20331;-63
2022/03/27 03:33:37;;;;;;;;;;;;;;;17.47;49.99;100390.44;2083094;28;19931;-63
2022/03/27 03:34:37;;;;;;;;;;;;;;;17.45;50.06;100387.84;2079411;28;20527;-63
2022/03/27 03:35:39;;;;;;;;;;;;;;;17.46;49.83;100395.00;2075765;28;20378;-62
2022/03/27 03:36:41;;;;;;;;;;;;;;;17.45;50.06;100396.03;2082663;28;19920;-62
2022/03/27 03:37:41;;;;;;;;;;;;;;;17.45;50.09;100390.56;2090092;28;20299;-64
2022/03/27 03:38:42;;;;;;;;;;;;;;;17.45;50.14;100392.44;2078962;28;19958;-63
2022/03/27 03:39:42;;;;;;;;;;;;;;;17.45;49.99;100389.72;2074355;28;19920;-63
2022/03/27 03:40:42;;;;;;;;;;;;;;;17.45;50.18;100387.00;2075992;28;19974;-62
2022/03/27 03:41:43;;;;;;;;;;;;;;;17.45;49.92;100398.75;2090415;28;19927;-66
2022/03/27 03:42:43;;;;;;;;;;;;;;;17.45;50.10;100393.31;2089456;28;19985;-63
2022/03/27 03:43:43;;;;;;;;;;;;;;;17.45;49.84;100397.91;2075594;28;19928;-63
2022/03/27 03:44:44;;;;;;;;;;;;;;;17.45;50.08;100397.91;2084019;28;19923;-64
2022/03/27 03:45:46;;;;;;;;;;;;;;;17.44;49.91;100391.59;2087006;28;20023;-64
2022/03/27 03:46:48;;;;;;;;;;;;;;;17.44;50.14;100391.59;2091869;28;20291;-63
2022/03/27 03:47:48;;;;;;;;;;;;;;;17.44;49.89;100390.69;2089595;28;20763;-62
2022/03/27 03:48:48;;;;;;;;;;;;;;;17.44;50.19;100385.25;2090911;28;19959;-64
2022/03/27 03:49:49;;;;;;;;;;;;;;;17.43;49.95;100395.28;2092277;28;19946;-62
2022/03/27 03:50:49;;;;;;;;;;;;;;;17.43;50.09;100389.84;2086773;28;19912;-64
2022/03/27 03:51:49;;;;;;;;;;;;;;;17.44;50.02;100391.59;2084495;28;19924;-64
2022/03/27 03:52:49;;;;;;;;;;;;;;;17.43;50.06;100395.28;2080495;28;19933;-61
2022/03/27 03:53:50;;;;;;;;;;;;;;;17.42;49.95;100399.03;2081978;28;20414;-64
2022/03/27 03:54:50;;;;;;;;;;;;;;;17.42;50.23;100399.03;2091811;28;19961;-61
2022/03/27 03:55:51;;;;;;;;;;;;;;;17.42;50.16;100399.03;2090599;28;19930;-63
2022/03/27 03:56:51;;;;;;;;;;;;;;;17.41;50.15;100391.81;2076338;28;19974;-61
2022/03/27 03:57:52;;;;;;;;;;;;;;;17.42;50.33;100399.03;2082279;28;20571;-62
2022/03/27 03:58:52;;;;;;;;;;;;;;;17.41;50.22;100394.56;2091663;28;19920;-63
2022/03/27 03:59:53;;;;;;;;;;;;;;;17.41;50.05;100389.09;2091856;28;20006;-64
2022/03/27 04:00:54;;;;;;;;;;;;;;;17.41;50.07;100383.66;2081911;28;19927;-64
2022/03/27 04:01:54;;;;;;;;;;;;;;;17.41;49.99;100385.50;2074883;28;19920;-62
2022/03/27 04:02:54;;;;;;;;;;;;;;;17.42;49.99;100392.69;2080417;28;19924;-64
2022/03/27 04:03:55;;;;;;;;;;;;;;;17.41;50.13;100400.00;2091463;28;19927;-63
2022/03/27 04:04:55;;;;;;;;;;;;;;;17.40;50.14;100392.84;2086793;28;19963;-63
2022/03/27 04:05:56;;;;;;;;;;;;;;;17.41;50.25;100402.72;2090563;28;20405;-63
2022/03/27 04:06:56;;;;;;;;;;;;;;;17.41;50.24;100401.88;2079426;28;19920;-62
2022/03/27 04:07:57;;;;;;;;;;;;;;;17.40;50.20;100403.72;2083019;28;19977;-63
2022/03/27 04:08:57;;;;;;;;;;;;;;;17.41;49.99;100408.19;2080597;28;19952;-64
2022/03/27 04:09:57;;;;;;;;;;;;;;;17.40;50.13;100401.00;2081419;28;19920;-64
2022/03/27 04:10:58;;;;;;;;;;;;;;;17.40;50.00;100406.47;2091898;28;20018;-62
2022/03/27 04:11:58;;;;;;;;;;;;;;;17.40;50.11;100401.00;2086680;28;20298;-63
2022/03/27 04:12:59;;;;;;;;;;;;;;;17.40;49.99;100401.00;2082736;28;20086;-63
2022/03/27 04:13:59;;;;;;;;;;;;;;;17.40;50.10;100405.59;2090324;28;20154;-63
2022/03/27 04:14:59;;;;;;;;;;;;;;;17.40;50.31;100403.72;2091530;28;19999;-64
2022/03/27 04:16:00;;;;;;;;;;;;;;;17.39;50.24;100403.84;2090522;28;19923;-64
2022/03/27 04:17:00;;;;;;;;;;;;;;;17.39;50.04;100399.25;2076790;28;19956;-62
2022/03/27 04:18:01;;;;;;;;;;;;;;;17.39;50.23;100403.84;2072052;28;19986;-62
2022/03/27 04:19:01;;;;;;;;;;;;;;;17.39;50.11;100396.53;2076772;28;20018;-64
2022/03/27 04:20:01;;;;;;;;;;;;;;;17.37;50.34;100395.84;2088922;28;20355;-63
2022/03/27 04:21:02;;;;;;;;;;;;;;;17.37;50.28;100395.84;2089864;28;20602;-62
2022/03/27 04:22:02;;;;;;;;;;;;;;;17.38;50.41;100397.53;2087771;28;19920;-64
2022/03/27 04:23:02;;;;;;;;;;;;;;;17.39;50.28;100395.69;2091704;28;19912;-63
2022/03/27 04:24:03;;;;;;;;;;;;;;;17.39;50.24;100395.69;2088945;28;19916;-64
2022/03/27 04:25:03;;;;;;;;;;;;;;;17.39;50.22;100399.25;2090844;28;19920;-62
2022/03/27 04:26:04;;;;;;;;;;;;;;;17.40;50.29;100398.28;2090339;28;20496;-64
2022/03/27 04:27:04;;;;;;;;;;;;;;;17.42;50.24;100406.31;2087484;28;20774;-63
2022/03/27 04:28:07;;;;;;;;;;;;;;;17.40;50.31;100406.47;2090724;28;19916;-62
2022/03/27 04:29:10;;;;;;;;;;;;;;;17.41;50.24;100408.19;2082052;28;21433;-63
2022/03/27 04:30:11;;;;;;;;;;;;;;;17.42;50.21;100401.75;2081107;28;19928;-63
2022/03/27 04:31:11;;;;;;;;;;;;;;;17.42;50.15;100407.19;2090544;28;20205;-64
2022/03/27 04:32:11;;;;;;;;;;;;;;;17.43;50.20;100414.38;2090261;28;19919;-62
2022/03/27 04:33:12;;;;;;;;;;;;;;;17.43;50.45;100405.34;2085655;28;19959;-64
2022/03/27 04:34:13;;;;;;;;;;;;;;;17.41;50.35;100408.19;2090784;28;20030;-62
2022/03/27 04:35:13;;;;;;;;;;;;;;;17.41;50.25;100408.19;2087270;28;19928;-64
2022/03/27 04:36:13;;;;;;;;;;;;;;;17.41;50.28;100401.88;2092371;28;20417;-63
2022/03/27 04:37:14;;;;;;;;;;;;;;;17.42;50.48;100403.59;2090913;28;20019;-63
2022/03/27 04:38:14;;;;;;;;;;;;;;;17.41;50.28;100410.03;2092623;28;20242;-63
2022/03/27 04:39:15;;;;;;;;;;;;;;;17.40;50.37;100406.47;2084067;28;19920;-62
2022/03/27 04:40:15;;;;;;;;;;;;;;;17.40;50.37;100406.47;2088757;28;19920;-64
2022/03/27 04:41:15;;;;;;;;;;;;;;;17.40;50.25;100401.00;2077479;28;20218;-63
2022/03/27 04:42:16;;;;;;;;;;;;;;;17.40;50.56;100401.00;2080548;28;19921;-64
2022/03/27 04:43:16;;;;;;;;;;;;;;;17.40;50.40;100401.00;2089300;28;19927;-63
2022/03/27 04:44:17;;;;;;;;;;;;;;;17.40;50.21;100406.47;2090497;28;20635;-63
2022/03/27 04:45:17;;;;;;;;;;;;;;;17.41;50.28;100405.44;2089790;28;19926;-63
2022/03/27 04:46:18;;;;;;;;;;;;;;;17.41;50.28;100405.44;2092065;28;19959;-63
2022/03/27 04:47:18;;;;;;;;;;;;;;;17.41;50.37;100402.72;2090332;28;20004;-63
2022/03/27 04:48:18;;;;;;;;;;;;;;;17.41;50.51;100408.19;2089781;28;19916;-63
2022/03/27 04:49:19;;;;;;;;;;;;;;;17.41;50.31;100405.44;2095277;28;19967;-63
2022/03/27 04:50:19;;;;;;;;;;;;;;;17.41;50.08;100408.19;2092894;28;19920;-63
2022/03/27 04:51:19;;;;;;;;;;;;;;;17.41;50.40;100412.78;2089227;28;19974;-62
2022/03/27 04:52:20;;;;;;;;;;;;;;;17.41;50.43;100412.78;2090914;28;19912;-63
2022/03/27 04:53:20;;;;;;;;;;;;;;;17.42;50.37;100411.75;2090314;28;19971;-62
2022/03/27 04:54:20;;;;;;;;;;;;;;;17.41;50.29;100408.19;2088902;28;19931;-63
2022/03/27 04:55:21;;;;;;;;;;;;;;;17.41;50.32;100405.44;2092816;28;19920;-63
2022/03/27 04:56:21;;;;;;;;;;;;;;;17.41;50.22;100402.72;2091462;28;19920;-63
2022/03/27 04:57:21;;;;;;;;;;;;;;;17.42;50.33;100404.47;2078473;28;19920;-63
2022/03/27 04:58:22;;;;;;;;;;;;;;;17.41;50.40;100408.19;2083099;28;19982;-63
2022/03/27 04:59:23;;;;;;;;;;;;;;;17.41;50.35;100405.44;2090845;28;19927;-63
2022/03/27 05:00:24;;;;;;;;;;;;;;;17.42;50.54;100407.19;2093417;28;19919;-63
2022/03/27 05:01:24;;;;;;;;;;;;;;;17.41;50.37;100408.19;2086779;28;19920;-63
2022/03/27 05:02:24;;;;;;;;;;;;;;;17.41;50.18;100400.00;2086837;28;19951;-63
2022/03/27 05:03:25;;;;;;;;;;;;;;;17.41;50.26;100402.72;2087940;28;19921;-63
2022/03/27 05:04:25;;;;;;;;;;;;;;;17.41;50.49;100407.31;2079269;28;20391;-63
2022/03/27 05:05:26;;;;;;;;;;;;;;;17.41;50.45;100408.19;2083497;28;19975;-62
2022/03/27 05:06:26;;;;;;;;;;;;;;;17.41;50.49;100412.78;2092976;28;19920;-63
2022/03/27 05:07:26;;;;;;;;;;;;;;;17.40;50.49;100417.34;2092071;28;20772;-63
2022/03/27 05:08:27;;;;;;;;;;;;;;;17.40;50.48;100422.81;2093334;28;20298;-63
2022/03/27 05:09:27;;;;;;;;;;;;;;;17.39;50.23;100414.75;2091990;28;19919;-62
2022/03/27 05:10:27;;;;;;;;;;;;;;;17.40;50.60;100422.81;2092982;28;20554;-63
2022/03/27 05:11:28;;;;;;;;;;;;;;;17.39;50.65;100418.34;2093070;28;19920;-63
2022/03/27 05:12:28;;;;;;;;;;;;;;;17.39;50.38;100421.06;2092186;28;19920;-64
2022/03/27 05:13:29;;;;;;;;;;;;;;;17.38;50.57;100416.63;2094138;28;19920;-64